createdAt,value
2016-03-15T14:29:42.463Z,1017.52
2016-03-15T14:30:42.448Z,1017.49
2016-03-15T14:31:42.434Z,1017.48
2016-03-15T14:32:42.411Z,1017.51
2016-03-15T14:33:42.491Z,1017.52
2016-03-15T14:34:42.383Z,1017.52
2016-03-15T14:35:42.370Z,1017.49
2016-03-15T14:36:42.357Z,1017.48
2016-03-15T14:37:42.328Z,1017.41
2016-03-15T14:38:42.316Z,1017.38
2016-03-15T14:39:42.303Z,1017.4
2016-03-15T14:40:42.289Z,1017.39
2016-03-15T14:41:42.277Z,1017.35
2016-03-15T14:42:42.264Z,1017.34
2016-03-15T14:43:42.251Z,1017.4
2016-03-15T14:44:42.239Z,1017.31
2016-03-15T14:45:42.225Z,1017.37
2016-03-15T14:46:42.212Z,1017.35
2016-03-15T14:47:42.200Z,1017.32
2016-03-15T14:48:42.186Z,1017.45
2016-03-15T14:49:42.173Z,1017.35
2016-03-15T14:50:42.161Z,1017.38
2016-03-15T14:51:42.148Z,1017.33
2016-03-15T14:52:42.135Z,1017.35
2016-03-15T14:53:42.121Z,1017.38
2016-03-15T14:54:42.094Z,1017.34
2016-03-15T14:55:42.096Z,1017.35
2016-03-15T14:56:42.066Z,1017.38
2016-03-15T14:57:42.055Z,1017.31
2016-03-15T14:58:42.041Z,1017.32
2016-03-15T14:59:42.029Z,1017.37
2016-03-15T15:00:42.016Z,1017.33
2016-03-15T15:01:42.002Z,1017.28
2016-03-15T15:02:41.990Z,1017.32
2016-03-15T15:03:41.977Z,1017.29
2016-03-15T15:04:41.963Z,1017.31
2016-03-15T15:05:41.951Z,1017.28
2016-03-15T15:06:41.938Z,1017.25
2016-03-15T15:07:41.926Z,1017.26
2016-03-15T15:08:41.912Z,1017.22
2016-03-15T15:09:41.898Z,1017.17
2016-03-15T15:10:41.887Z,1017.15
2016-03-15T15:11:41.873Z,1017.15
2016-03-15T15:12:41.853Z,1017.12
2016-03-15T15:13:41.828Z,1017.06
2016-03-15T15:14:41.785Z,1017.08
2016-03-15T15:15:41.775Z,1017
2016-03-15T15:16:41.731Z,1016.99
2016-03-15T15:17:41.709Z,1016.97
2016-03-15T15:18:41.693Z,1016.96
2016-03-15T15:19:41.675Z,1016.91
2016-03-15T15:20:41.657Z,1016.94
2016-03-15T15:21:41.639Z,1016.94
2016-03-15T15:22:41.622Z,1016.94
2016-03-15T15:23:41.605Z,1016.95
2016-03-15T15:24:41.590Z,1016.89
2016-03-15T15:25:41.577Z,1016.88
2016-03-15T15:26:41.562Z,1016.86
2016-03-15T15:27:41.546Z,1016.89
2016-03-15T15:28:41.533Z,1016.88
2016-03-15T15:29:41.519Z,1016.9
2016-03-15T15:30:41.506Z,1016.92
2016-03-15T15:31:41.492Z,1016.91
2016-03-15T15:32:41.478Z,1016.95
2016-03-15T15:33:41.465Z,1017.01
2016-03-15T15:34:41.452Z,1016.93
2016-03-15T15:35:41.438Z,1016.91
2016-03-15T15:36:41.426Z,1016.88
2016-03-15T15:37:41.413Z,1016.89
2016-03-15T15:38:41.400Z,1016.9
2016-03-15T15:39:41.387Z,1016.87
2016-03-15T15:40:41.373Z,1016.84
2016-03-15T15:41:41.361Z,1016.89
2016-03-15T15:42:41.348Z,1016.83
2016-03-15T15:43:41.335Z,1016.88
2016-03-15T15:44:41.323Z,1016.84
2016-03-15T15:45:41.309Z,1016.8
2016-03-15T15:46:41.297Z,1016.78
2016-03-15T15:47:41.284Z,1016.8
2016-03-15T15:48:41.270Z,1016.83
2016-03-15T15:49:41.258Z,1016.86
2016-03-15T15:50:41.245Z,1016.89
2016-03-15T15:51:41.231Z,1016.93
2016-03-15T15:52:41.219Z,1016.88
2016-03-15T15:53:41.206Z,1016.83
2016-03-15T15:54:41.177Z,1016.87
2016-03-15T15:55:41.180Z,1016.91
2016-03-15T15:56:41.167Z,1016.9
2016-03-15T15:57:41.139Z,1016.89
2016-03-15T15:58:41.126Z,1016.92
2016-03-15T15:59:41.113Z,1016.93
2016-03-15T16:00:41.099Z,1016.86
2016-03-15T16:01:41.088Z,1016.92
2016-03-15T16:02:41.090Z,1016.91
2016-03-15T16:03:41.060Z,1016.97
2016-03-15T16:04:41.049Z,1016.95
2016-03-15T16:05:41.035Z,1016.88
2016-03-15T16:06:41.022Z,1016.9
2016-03-15T16:07:41.015Z,1016.9
2016-03-15T16:08:41.001Z,1016.95
2016-03-15T16:09:40.987Z,1016.9
2016-03-15T16:10:40.975Z,1016.87
2016-03-15T16:11:40.947Z,1016.86
2016-03-15T16:12:40.933Z,1016.88
2016-03-15T16:13:40.920Z,1016.85
2016-03-15T16:14:40.908Z,1016.84
2016-03-15T16:15:40.895Z,1016.82
2016-03-15T16:16:40.882Z,1016.77
2016-03-15T16:17:40.869Z,1016.87
2016-03-15T16:18:40.856Z,1016.81
2016-03-15T16:19:40.844Z,1016.77
2016-03-15T16:20:40.831Z,1016.76
2016-03-15T16:21:40.817Z,1016.74
2016-03-15T16:22:40.788Z,1016.78
2016-03-15T16:23:40.776Z,1016.78
2016-03-15T16:24:40.763Z,1016.79
2016-03-15T16:25:40.749Z,1016.77
2016-03-15T16:26:40.738Z,1016.75
2016-03-15T16:27:40.724Z,1016.71
2016-03-15T16:28:40.711Z,1016.71
2016-03-15T16:29:40.699Z,1016.7
2016-03-15T16:30:40.685Z,1016.75
2016-03-15T16:31:40.657Z,1016.78
2016-03-15T16:32:40.644Z,1016.8
2016-03-15T16:33:40.631Z,1016.78
2016-03-15T16:34:40.618Z,1016.73
2016-03-15T16:35:40.605Z,1016.72
2016-03-15T16:36:40.592Z,1016.72
2016-03-15T16:37:40.579Z,1016.74
2016-03-15T16:38:40.566Z,1016.73
2016-03-15T16:39:40.553Z,1016.75
2016-03-15T16:40:40.540Z,1016.73
2016-03-15T16:41:40.512Z,1016.74
2016-03-15T16:42:40.498Z,1016.76
2016-03-15T16:43:40.486Z,1016.77
2016-03-15T16:44:40.473Z,1016.78
2016-03-15T16:45:40.460Z,1016.8
2016-03-15T16:46:40.447Z,1016.8
2016-03-15T16:47:40.434Z,1016.87
2016-03-15T16:48:40.406Z,1016.86
2016-03-15T16:49:40.392Z,1016.85
2016-03-15T16:50:40.380Z,1016.83
2016-03-15T16:51:40.367Z,1016.83
2016-03-15T16:52:40.354Z,1016.88
2016-03-15T16:53:40.341Z,1016.87
2016-03-15T16:54:40.328Z,1016.89
2016-03-15T16:55:40.316Z,1016.88
2016-03-15T16:56:40.286Z,1016.91
2016-03-15T16:57:40.274Z,1016.94
2016-03-15T16:58:40.261Z,1016.94
2016-03-15T16:59:40.247Z,1016.87
2016-03-15T17:00:40.235Z,1016.83
2016-03-15T17:01:40.221Z,1016.84
2016-03-15T17:02:40.194Z,1016.98
2016-03-15T17:03:40.180Z,1016.92
2016-03-15T17:04:40.167Z,1016.92
2016-03-15T17:05:40.155Z,1016.96
2016-03-15T17:06:40.141Z,1016.97
2016-03-15T17:07:40.128Z,1017.02
2016-03-15T17:08:40.100Z,1016.98
2016-03-15T17:09:40.103Z,1016.97
2016-03-15T17:10:40.074Z,1017.05
2016-03-15T17:11:40.062Z,1017
2016-03-15T17:12:40.048Z,1017
2016-03-15T17:13:40.035Z,1016.97
2016-03-15T17:14:40.007Z,1016.93
2016-03-15T17:15:39.994Z,1016.96
2016-03-15T17:16:39.981Z,1016.97
2016-03-15T17:17:39.968Z,1016.96
2016-03-15T17:18:39.970Z,1016.98
2016-03-15T17:19:39.942Z,1017.01
2016-03-15T17:20:39.914Z,1017.03
2016-03-15T17:21:39.900Z,1017
2016-03-15T17:22:39.888Z,1016.99
2016-03-15T17:23:39.875Z,1016.97
2016-03-15T17:24:39.861Z,1016.96
2016-03-15T17:25:39.849Z,1016.95
2016-03-15T17:26:39.820Z,1016.97
2016-03-15T17:27:39.807Z,1017.04
2016-03-15T17:28:39.795Z,1017.02
2016-03-15T17:29:39.782Z,1017.01
2016-03-15T17:30:39.752Z,1016.99
2016-03-15T17:31:39.756Z,1017.03
2016-03-15T17:32:39.727Z,1017.06
2016-03-15T17:33:39.713Z,1017.02
2016-03-15T17:34:39.702Z,1017.01
2016-03-15T17:35:39.688Z,1016.99
2016-03-15T17:36:39.660Z,1016.99
2016-03-15T17:37:39.663Z,1017.03
2016-03-15T17:38:39.634Z,1017.09
2016-03-15T17:39:39.621Z,1017.1
2016-03-15T17:40:39.608Z,1017.08
2016-03-15T17:41:39.595Z,1017.07
2016-03-15T17:42:39.566Z,1017.05
2016-03-15T17:43:39.554Z,1017.07
2016-03-15T17:44:39.540Z,1017.14
2016-03-15T17:45:39.528Z,1017.21
2016-03-15T17:46:39.499Z,1017.19
2016-03-15T17:47:39.486Z,1017.14
2016-03-15T17:48:39.489Z,1017.1
2016-03-15T17:49:39.461Z,1017.08
2016-03-15T17:50:39.447Z,1017.11
2016-03-15T17:51:39.419Z,1017.2
2016-03-15T17:52:39.406Z,1017.22
2016-03-15T17:53:39.392Z,1017.2
2016-03-15T17:54:39.381Z,1017.23
2016-03-15T17:55:39.367Z,1017.19
2016-03-15T17:56:39.338Z,1017.14
2016-03-15T17:57:39.326Z,1017.19
2016-03-15T17:58:39.313Z,1017.24
2016-03-15T17:59:39.299Z,1017.26
2016-03-15T18:00:39.271Z,1017.27
2016-03-15T18:01:39.274Z,1017.25
2016-03-15T18:02:39.246Z,1017.22
2016-03-15T18:03:39.232Z,1017.25
2016-03-15T18:04:39.219Z,1017.25
2016-03-15T18:05:39.207Z,1017.22
2016-03-15T18:06:39.177Z,1017.25
2016-03-15T18:07:39.165Z,1017.26
2016-03-15T18:08:39.151Z,1017.24
2016-03-15T18:09:39.140Z,1017.3
2016-03-15T18:10:39.110Z,1017.25
2016-03-15T18:11:39.098Z,1017.27
2016-03-15T18:12:39.085Z,1017.25
2016-03-15T18:13:39.087Z,1017.29
2016-03-15T18:14:39.043Z,1017.29
2016-03-15T18:15:39.031Z,1017.31
2016-03-15T18:16:39.017Z,1017.32
2016-03-15T18:17:39.004Z,1017.31
2016-03-15T18:18:38.992Z,1017.29
2016-03-15T18:19:38.962Z,1017.3
2016-03-15T18:20:38.950Z,1017.26
2016-03-15T18:21:38.937Z,1017.29
2016-03-15T18:22:38.924Z,1017.29
2016-03-15T18:23:38.895Z,1017.24
2016-03-15T18:24:38.883Z,1017.31
2016-03-15T18:25:38.869Z,1017.29
2016-03-15T18:26:38.856Z,1017.32
2016-03-15T18:27:38.844Z,1017.35
2016-03-15T18:28:38.816Z,1017.32
2016-03-15T18:29:38.802Z,1017.3
2016-03-15T18:30:38.789Z,1017.29
2016-03-15T18:31:38.761Z,1017.34
2016-03-15T18:32:38.747Z,1017.33
2016-03-15T18:33:38.735Z,1017.36
2016-03-15T18:34:38.721Z,1017.35
2016-03-15T18:35:38.694Z,1017.34
2016-03-15T18:36:38.680Z,1017.35
2016-03-15T18:37:38.668Z,1017.35
2016-03-15T18:38:38.655Z,1017.31
2016-03-15T18:39:38.641Z,1017.34
2016-03-15T18:40:38.613Z,1017.3
2016-03-15T18:41:38.600Z,1017.32
2016-03-15T18:42:38.587Z,1017.3
2016-03-15T18:43:38.574Z,1017.32
2016-03-15T18:44:38.546Z,1017.31
2016-03-15T18:45:38.532Z,1017.34
2016-03-15T18:46:38.520Z,1017.31
2016-03-15T18:47:38.507Z,1017.32
2016-03-15T18:48:38.478Z,1017.27
2016-03-15T18:49:38.465Z,1017.26
2016-03-15T18:50:38.453Z,1017.28
2016-03-15T18:51:38.439Z,1017.27
2016-03-15T18:52:38.411Z,1017.28
2016-03-15T18:53:38.398Z,1017.28
2016-03-15T18:54:38.386Z,1017.32
2016-03-15T18:55:38.372Z,1017.28
2016-03-15T18:56:38.359Z,1017.33
2016-03-15T18:57:38.330Z,1017.31
2016-03-15T18:58:38.318Z,1017.31
2016-03-15T18:59:38.305Z,1017.28
2016-03-15T19:00:38.291Z,1017.3
2016-03-15T19:01:38.279Z,1017.3
2016-03-15T19:02:38.250Z,1017.28
2016-03-15T19:03:38.238Z,1017.3
2016-03-15T19:04:38.224Z,1017.29
2016-03-15T19:05:38.211Z,1017.35
2016-03-15T19:06:38.183Z,1017.34
2016-03-15T19:07:38.171Z,1017.35
2016-03-15T19:08:38.157Z,1017.4
2016-03-15T19:09:38.143Z,1017.41
2016-03-15T19:10:38.116Z,1017.41
2016-03-15T19:11:38.102Z,1017.43
2016-03-15T19:12:38.090Z,1017.43
2016-03-15T19:13:38.077Z,1017.4
2016-03-15T19:14:38.064Z,1017.41
2016-03-15T19:15:38.051Z,1017.37
2016-03-15T19:16:38.023Z,1017.41
2016-03-15T19:17:38.010Z,1017.39
2016-03-15T19:18:37.996Z,1017.36
2016-03-15T19:19:37.984Z,1017.36
2016-03-15T19:20:37.956Z,1017.39
2016-03-15T19:21:37.942Z,1017.43
2016-03-15T19:22:37.929Z,1017.39
2016-03-15T19:23:37.917Z,1017.34
2016-03-15T19:24:37.903Z,1017.38
2016-03-15T19:25:37.875Z,1017.37
2016-03-15T19:26:37.861Z,1017.4
2016-03-15T19:27:37.849Z,1017.39
2016-03-15T19:28:37.836Z,1017.39
2016-03-15T19:29:37.823Z,1017.39
2016-03-15T19:30:37.795Z,1017.43
2016-03-15T19:31:37.797Z,1017.41
2016-03-15T19:32:37.768Z,1017.45
2016-03-15T19:33:37.787Z,1017.42
2016-03-15T19:34:37.743Z,1017.38
2016-03-15T19:35:37.729Z,1017.36
2016-03-15T19:36:37.702Z,1017.41
2016-03-15T19:37:37.688Z,1017.38
2016-03-15T19:38:37.675Z,1017.36
2016-03-15T19:39:37.663Z,1017.39
2016-03-15T19:40:37.634Z,1017.36
2016-03-15T19:41:37.621Z,1017.43
2016-03-15T19:42:37.608Z,1017.41
2016-03-15T19:43:37.595Z,1017.48
2016-03-15T19:44:37.581Z,1017.46
2016-03-15T19:45:37.553Z,1017.47
2016-03-15T19:46:38.400Z,1017.46
2016-03-15T19:47:37.528Z,1017.46
2016-03-15T19:48:37.515Z,1017.46
2016-03-15T19:49:37.501Z,1017.48
2016-03-15T19:50:37.473Z,1017.46
2016-03-15T19:51:37.476Z,1017.48
2016-03-15T19:52:37.447Z,1017.49
2016-03-15T19:53:37.434Z,1017.5
2016-03-15T19:54:37.406Z,1017.53
2016-03-15T19:55:37.392Z,1017.47
2016-03-15T19:56:37.381Z,1017.52
2016-03-15T19:57:37.367Z,1017.5
2016-03-15T19:58:37.338Z,1017.55
2016-03-15T19:59:37.326Z,1017.5
2016-03-15T20:00:37.313Z,1017.5
2016-03-15T20:01:37.300Z,1017.47
2016-03-15T20:02:37.286Z,1017.51
2016-03-15T20:03:37.258Z,1017.49
2016-03-15T20:04:37.245Z,1017.53
2016-03-15T20:05:37.233Z,1017.5
2016-03-15T20:06:37.219Z,1017.53
2016-03-15T20:07:37.206Z,1017.51
2016-03-15T20:08:37.178Z,1017.51
2016-03-15T20:09:37.165Z,1017.5
2016-03-15T20:10:37.151Z,1017.51
2016-03-15T20:11:37.138Z,1017.58
2016-03-15T20:12:37.110Z,1017.51
2016-03-15T20:13:37.098Z,1017.54
2016-03-15T20:14:37.085Z,1017.49
2016-03-15T20:15:37.071Z,1017.51
2016-03-15T20:16:37.043Z,1017.53
2016-03-15T20:17:37.030Z,1017.48
2016-03-15T20:18:37.017Z,1017.54
2016-03-15T20:19:37.004Z,1017.55
2016-03-15T20:20:36.992Z,1017.54
2016-03-15T20:21:36.978Z,1017.52
2016-03-15T20:22:36.951Z,1017.55
2016-03-15T20:23:36.936Z,1017.53
2016-03-15T20:24:36.923Z,1017.55
2016-03-15T20:25:36.926Z,1017.48
2016-03-15T20:26:36.882Z,1017.49
2016-03-15T20:27:36.869Z,1017.51
2016-03-15T20:28:36.857Z,1017.48
2016-03-15T20:29:36.828Z,1017.46
2016-03-15T20:30:36.815Z,1017.47
2016-03-15T20:31:36.802Z,1017.51
2016-03-15T20:32:36.789Z,1017.54
2016-03-15T20:33:36.761Z,1017.54
2016-03-15T20:34:36.747Z,1017.56
2016-03-15T20:35:36.735Z,1017.49
2016-03-15T20:36:36.722Z,1017.54
2016-03-15T20:37:36.708Z,1017.51
2016-03-15T20:38:36.681Z,1017.52
2016-03-15T20:39:36.668Z,1017.46
2016-03-15T20:40:36.655Z,1017.48
2016-03-15T20:41:36.642Z,1017.46
2016-03-15T20:42:36.613Z,1017.49
2016-03-15T20:43:36.600Z,1017.51
2016-03-15T20:44:36.587Z,1017.46
2016-03-15T20:45:36.574Z,1017.47
2016-03-15T20:46:36.546Z,1017.48
2016-03-15T20:47:36.533Z,1017.47
2016-03-15T20:48:36.520Z,1017.45
2016-03-15T20:49:36.507Z,1017.48
2016-03-15T20:50:36.479Z,1017.49
2016-03-15T20:51:36.465Z,1017.48
2016-03-15T20:52:36.453Z,1017.55
2016-03-15T20:53:36.439Z,1017.54
2016-03-15T20:54:36.411Z,1017.53
2016-03-15T20:55:36.398Z,1017.55
2016-03-15T20:56:36.385Z,1017.52
2016-03-15T20:57:36.372Z,1017.54
2016-03-15T20:58:36.344Z,1017.58
2016-03-15T20:59:36.331Z,1017.58
2016-03-15T21:00:36.318Z,1017.59
2016-03-15T21:01:36.367Z,1017.61
2016-03-15T21:02:36.291Z,1017.62
2016-03-15T21:03:36.264Z,1017.64
2016-03-15T21:04:36.250Z,1017.66
2016-03-15T21:05:36.222Z,1017.7
2016-03-15T21:06:36.203Z,1017.7
2016-03-15T21:07:36.202Z,1017.65
2016-03-15T21:08:36.173Z,1017.65
2016-03-15T21:09:36.207Z,1017.67
2016-03-15T21:10:36.147Z,1017.63
2016-03-15T21:11:36.119Z,1017.65
2016-03-15T21:12:36.106Z,1017.64
2016-03-15T21:13:36.093Z,1017.66
2016-03-15T21:14:36.080Z,1017.67
2016-03-15T21:15:36.067Z,1017.65
2016-03-15T21:16:36.038Z,1017.65
2016-03-15T21:17:36.025Z,1017.67
2016-03-15T21:18:36.013Z,1017.69
2016-03-15T21:19:35.985Z,1017.64
2016-03-15T21:20:35.972Z,1017.68
2016-03-15T21:21:35.958Z,1017.66
2016-03-15T21:22:35.945Z,1017.72
2016-03-15T21:23:35.916Z,1017.71
2016-03-15T21:24:35.904Z,1017.7
2016-03-15T21:25:35.890Z,1017.73
2016-03-15T21:26:35.862Z,1017.77
2016-03-15T21:27:35.849Z,1017.75
2016-03-15T21:28:35.836Z,1017.75
2016-03-15T21:29:35.824Z,1017.79
2016-03-15T21:30:35.795Z,1017.72
2016-03-15T21:31:35.781Z,1017.77
2016-03-15T21:32:35.770Z,1017.74
2016-03-15T21:33:35.756Z,1017.79
2016-03-15T21:34:35.728Z,1017.82
2016-03-15T21:35:35.714Z,1017.86
2016-03-15T21:36:35.701Z,1017.81
2016-03-15T21:37:35.689Z,1017.83
2016-03-15T21:38:35.661Z,1017.78
2016-03-15T21:39:35.647Z,1017.86
2016-03-15T21:40:35.634Z,1017.79
2016-03-15T21:41:35.622Z,1017.84
2016-03-15T21:42:35.592Z,1017.77
2016-03-15T21:43:35.580Z,1017.84
2016-03-15T21:44:35.567Z,1017.84
2016-03-15T21:45:35.538Z,1017.81
2016-03-15T21:46:35.526Z,1017.84
2016-03-15T21:47:35.513Z,1017.8
2016-03-15T21:48:35.483Z,1017.79
2016-03-15T21:49:35.472Z,1017.84
2016-03-15T21:50:35.458Z,1017.83
2016-03-15T21:51:35.445Z,1017.91
2016-03-15T21:52:35.432Z,1017.89
2016-03-15T21:53:35.404Z,1017.89
2016-03-15T21:54:35.391Z,1017.91
2016-03-15T21:55:35.378Z,1017.91
2016-03-15T21:56:35.349Z,1017.88
2016-03-15T21:57:35.337Z,1017.94
2016-03-15T21:58:35.324Z,1017.9
2016-03-15T21:59:35.295Z,1017.95
2016-03-15T22:00:35.282Z,1017.89
2016-03-15T22:01:35.269Z,1017.91
2016-03-15T22:02:35.256Z,1017.9
2016-03-15T22:03:35.228Z,1017.9
2016-03-15T22:04:35.215Z,1017.84
2016-03-15T22:05:35.201Z,1017.82
2016-03-15T22:06:35.174Z,1017.78
2016-03-15T22:07:35.161Z,1017.83
2016-03-15T22:08:35.148Z,1017.85
2016-03-15T22:09:35.120Z,1017.87
2016-03-15T22:10:35.106Z,1017.92
2016-03-15T22:11:35.094Z,1017.94
2016-03-15T22:12:35.065Z,1017.89
2016-03-15T22:13:35.052Z,1017.92
2016-03-15T22:14:35.039Z,1017.93
2016-03-15T22:15:35.026Z,1017.93
2016-03-15T22:16:34.998Z,1017.92
2016-03-15T22:17:34.984Z,1017.92
2016-03-15T22:18:34.972Z,1017.92
2016-03-15T22:19:34.943Z,1017.88
2016-03-15T22:20:34.931Z,1017.87
2016-03-15T22:21:34.918Z,1017.9
2016-03-15T22:22:34.889Z,1017.89
2016-03-15T22:23:34.875Z,1017.91
2016-03-15T22:24:34.863Z,1017.88
2016-03-15T22:25:34.850Z,1017.96
2016-03-15T22:26:34.822Z,1017.89
2016-03-15T22:27:34.808Z,1017.92
2016-03-15T22:28:34.796Z,1017.9
2016-03-15T22:29:34.767Z,1017.91
2016-03-15T22:30:34.755Z,1017.92
2016-03-15T22:31:34.741Z,1017.91
2016-03-15T22:32:34.713Z,1017.9
2016-03-15T22:33:34.700Z,1017.87
2016-03-15T22:34:34.687Z,1017.88
2016-03-15T22:35:34.674Z,1017.86
2016-03-15T22:36:34.646Z,1017.83
2016-03-15T22:37:34.633Z,1017.84
2016-03-15T22:38:34.619Z,1017.85
2016-03-15T22:39:34.591Z,1017.86
2016-03-15T22:40:34.593Z,1017.86
2016-03-15T22:41:34.566Z,1017.83
2016-03-15T22:42:34.537Z,1017.85
2016-03-15T22:43:34.523Z,1017.8
2016-03-15T22:44:34.511Z,1017.88
2016-03-15T22:45:34.482Z,1017.84
2016-03-15T22:46:34.470Z,1017.85
2016-03-15T22:47:34.457Z,1017.83
2016-03-15T22:48:34.428Z,1017.81
2016-03-15T22:49:34.430Z,1017.81
2016-03-15T22:50:34.402Z,1017.84
2016-03-15T22:51:34.389Z,1017.81
2016-03-15T22:52:34.361Z,1017.8
2016-03-15T22:53:34.364Z,1017.84
2016-03-15T22:54:34.335Z,1017.81
2016-03-15T22:55:34.306Z,1017.81
2016-03-15T22:56:34.293Z,1017.8
2016-03-15T22:57:34.281Z,1017.79
2016-03-15T22:58:34.252Z,1017.79
2016-03-15T22:59:34.239Z,1017.78
2016-03-15T23:00:34.225Z,1017.77
2016-03-15T23:01:34.213Z,1017.76
2016-03-15T23:02:34.184Z,1017.77
2016-03-15T23:03:34.171Z,1017.78
2016-03-15T23:04:34.158Z,1017.77
2016-03-15T23:05:34.131Z,1017.82
2016-03-15T23:06:34.117Z,1017.77
2016-03-15T23:07:34.089Z,1017.77
2016-03-15T23:08:34.076Z,1017.79
2016-03-15T23:09:34.063Z,1017.75
2016-03-15T23:10:34.035Z,1017.79
2016-03-15T23:11:34.021Z,1017.81
2016-03-15T23:12:34.008Z,1017.76
2016-03-15T23:13:33.979Z,1017.79
2016-03-15T23:14:33.966Z,1017.86
2016-03-15T23:15:33.954Z,1017.8
2016-03-15T23:16:33.926Z,1017.77
2016-03-15T23:17:33.913Z,1017.8
2016-03-15T23:18:33.915Z,1017.8
2016-03-15T23:19:33.871Z,1017.77
2016-03-15T23:20:33.857Z,1017.75
2016-03-15T23:21:33.845Z,1017.75
2016-03-15T23:22:33.831Z,1017.77
2016-03-15T23:23:33.819Z,1017.79
2016-03-15T23:24:33.790Z,1017.78
2016-03-15T23:25:33.778Z,1017.76
2016-03-15T23:26:33.749Z,1017.8
2016-03-15T23:27:33.736Z,1017.81
2016-03-15T23:28:33.723Z,1017.84
2016-03-15T23:29:33.695Z,1017.77
2016-03-15T23:30:33.681Z,1017.79
2016-03-15T23:31:33.670Z,1017.82
2016-03-15T23:32:33.640Z,1017.79
2016-03-15T23:33:33.628Z,1017.79
2016-03-15T23:34:33.614Z,1017.78
2016-03-15T23:35:33.586Z,1017.78
2016-03-15T23:36:33.572Z,1017.78
2016-03-15T23:37:33.560Z,1017.8
2016-03-15T23:38:33.531Z,1017.77
2016-03-15T23:39:33.519Z,1017.78
2016-03-15T23:40:33.506Z,1017.75
2016-03-15T23:41:33.493Z,1017.79
2016-03-15T23:42:33.464Z,1017.77
2016-03-15T23:43:33.451Z,1017.76
2016-03-15T23:44:33.422Z,1017.73
2016-03-15T23:45:33.409Z,1017.77
2016-03-15T23:46:33.397Z,1017.78
2016-03-15T23:47:33.368Z,1017.8
2016-03-15T23:48:33.355Z,1017.76
2016-03-15T23:49:33.343Z,1017.77
2016-03-15T23:50:33.313Z,1017.75
2016-03-15T23:51:33.301Z,1017.78
2016-03-15T23:52:33.288Z,1017.75
2016-03-15T23:53:33.260Z,1017.72
2016-03-15T23:54:33.246Z,1017.71
2016-03-15T23:55:33.234Z,1017.72
2016-03-15T23:56:33.204Z,1017.73
2016-03-15T23:57:33.207Z,1017.75
2016-03-15T23:58:33.178Z,1017.76
2016-03-15T23:59:33.150Z,1017.77
